createdAt,value
2022-10-20T00:01:26.669Z,13.15
2022-10-20T00:03:54.587Z,13.14
2022-10-20T00:06:24.466Z,13.18
2022-10-20T00:08:52.352Z,13.18
2022-10-20T00:11:21.426Z,13.16
2022-10-20T00:13:52.565Z,13.16
2022-10-20T00:16:20.478Z,13.19
2022-10-20T00:18:47.710Z,13.19
2022-10-20T00:21:17.884Z,13.15
2022-10-20T00:23:45.041Z,13.14
2022-10-20T00:26:17.731Z,13.10
2022-10-20T00:28:45.150Z,13.12
2022-10-20T00:31:12.425Z,13.11
2022-10-20T00:33:39.652Z,13.08
2022-10-20T00:36:08.841Z,13.06
2022-10-20T00:38:35.990Z,13.01
2022-10-20T00:41:03.401Z,13.06
2022-10-20T00:43:47.238Z,13.03
2022-10-20T00:46:37.948Z,13.00
2022-10-20T00:49:25.238Z,12.96
2022-10-20T00:51:53.228Z,12.94
2022-10-20T00:54:25.350Z,12.92
2022-10-20T00:56:54.788Z,12.90
2022-10-20T00:59:25.715Z,12.89
2022-10-20T01:01:53.247Z,12.93
2022-10-20T01:04:20.236Z,12.89
2022-10-20T01:06:47.007Z,12.85
2022-10-20T01:09:13.998Z,12.84
2022-10-20T01:11:59.763Z,12.83
2022-10-20T01:14:49.851Z,12.80
2022-10-20T01:17:47.796Z,12.76
2022-10-20T01:20:40.038Z,12.77
2022-10-20T01:23:42.264Z,12.77
2022-10-20T01:26:33.592Z,12.81
2022-10-20T01:29:19.297Z,12.80
2022-10-20T01:31:52.898Z,12.74
2022-10-20T01:34:30.591Z,12.71
2022-10-20T01:37:07.750Z,12.70
2022-10-20T01:39:49.092Z,12.67
2022-10-20T01:42:22.578Z,12.62
2022-10-20T01:44:53.090Z,12.57
2022-10-20T01:47:22.830Z,12.57
2022-10-20T01:49:49.990Z,12.58
2022-10-20T01:52:17.373Z,12.58
2022-10-20T01:54:44.077Z,12.61
2022-10-20T01:57:38.761Z,12.58
2022-10-20T02:00:16.971Z,12.64
2022-10-20T02:03:04.933Z,12.67
2022-10-20T02:06:05.093Z,12.66
2022-10-20T02:08:43.871Z,12.64
2022-10-20T02:11:42.957Z,12.62
2022-10-20T02:14:13.065Z,12.61
2022-10-20T02:16:45.840Z,12.54
2022-10-20T02:19:16.171Z,12.55
2022-10-20T02:21:42.908Z,12.53
2022-10-20T02:24:09.957Z,12.51
2022-10-20T02:26:39.463Z,12.53
2022-10-20T02:29:30.896Z,12.56
2022-10-20T02:31:58.156Z,12.57
2022-10-20T02:34:28.349Z,12.58
2022-10-20T02:36:58.383Z,12.55
2022-10-20T02:39:25.959Z,12.54
2022-10-20T02:41:52.781Z,12.60
2022-10-20T02:44:19.444Z,12.62
2022-10-20T02:46:46.291Z,12.63
2022-10-20T02:49:13.021Z,12.68
2022-10-20T02:51:39.786Z,12.72
2022-10-20T02:54:06.497Z,12.72
2022-10-20T02:56:33.246Z,12.70
2022-10-20T02:59:00.030Z,12.76
2022-10-20T03:01:26.755Z,12.79
2022-10-20T03:03:58.571Z,12.78
2022-10-20T03:06:25.761Z,12.78
2022-10-20T03:08:52.655Z,12.82
2022-10-20T03:11:19.313Z,12.87
2022-10-20T03:13:45.992Z,12.89
2022-10-20T03:16:12.821Z,12.94
2022-10-20T03:18:40.740Z,12.94
2022-10-20T03:21:07.639Z,12.98
2022-10-20T03:23:34.355Z,12.95
2022-10-20T03:26:14.747Z,12.91
2022-10-20T03:28:42.049Z,12.85
2022-10-20T03:31:09.504Z,12.81
2022-10-20T03:33:36.280Z,12.78
2022-10-20T03:36:03.716Z,12.78
2022-10-20T03:38:30.542Z,12.75
2022-10-20T03:40:57.245Z,12.75
2022-10-20T03:43:24.116Z,12.71
2022-10-20T03:45:50.929Z,12.68
2022-10-20T03:48:17.704Z,12.69
2022-10-20T03:50:44.473Z,12.72
2022-10-20T03:53:12.992Z,12.75
2022-10-20T03:55:39.687Z,12.73
2022-10-20T03:58:06.425Z,12.74
2022-10-20T04:00:35.437Z,12.80
2022-10-20T04:03:02.113Z,12.81
2022-10-20T04:05:28.891Z,12.84
2022-10-20T04:07:55.813Z,12.85
2022-10-20T04:10:22.516Z,12.82
2022-10-20T04:12:49.641Z,12.88
2022-10-20T04:15:18.405Z,12.90
2022-10-20T04:17:45.122Z,12.94
2022-10-20T04:20:11.916Z,12.90
2022-10-20T04:22:39.056Z,12.88
2022-10-20T04:25:06.648Z,12.91
2022-10-20T04:27:33.705Z,12.87
2022-10-20T04:30:00.564Z,12.85
2022-10-20T04:32:27.944Z,12.86
2022-10-20T04:34:54.623Z,12.93
2022-10-20T04:37:21.334Z,12.97
2022-10-20T04:39:48.113Z,12.97
2022-10-20T04:42:14.839Z,12.98
2022-10-20T04:44:41.501Z,12.97
2022-10-20T04:47:08.210Z,12.96
2022-10-20T04:49:34.975Z,12.97
2022-10-20T04:52:02.131Z,12.96
2022-10-20T04:54:28.898Z,12.89
2022-10-20T04:56:55.945Z,12.90
2022-10-20T04:59:22.732Z,12.90
2022-10-20T05:01:49.453Z,12.93
2022-10-20T05:04:21.867Z,12.92
2022-10-20T05:06:49.512Z,12.91
2022-10-20T05:09:16.519Z,12.91
2022-10-20T05:11:44.071Z,12.92
2022-10-20T05:14:11.010Z,12.97
2022-10-20T05:16:37.706Z,12.95
2022-10-20T05:19:04.423Z,12.92
2022-10-20T05:21:32.221Z,12.89
2022-10-20T05:24:01.792Z,12.90
2022-10-20T05:26:32.418Z,12.89
2022-10-20T05:28:59.126Z,12.85
2022-10-20T05:31:25.851Z,12.88
2022-10-20T05:33:55.350Z,12.85
2022-10-20T05:36:24.778Z,12.86
2022-10-20T05:38:54.165Z,12.83
2022-10-20T05:41:23.702Z,12.85
2022-10-20T05:43:51.813Z,12.84
2022-10-20T05:46:19.523Z,12.85
2022-10-20T05:48:47.027Z,12.84
2022-10-20T05:51:17.074Z,12.81
2022-10-20T05:53:44.466Z,12.80
2022-10-20T05:56:13.861Z,12.80
2022-10-20T05:58:41.267Z,12.78
2022-10-20T06:01:11.047Z,12.79
2022-10-20T06:03:38.054Z,12.79
2022-10-20T06:06:04.877Z,12.80
2022-10-20T06:08:33.147Z,12.84
2022-10-20T06:11:11.146Z,12.84
2022-10-20T06:13:38.162Z,12.83
2022-10-20T06:16:13.793Z,12.79
2022-10-20T06:18:44.861Z,12.79
2022-10-20T06:21:23.812Z,12.76
2022-10-20T06:23:50.856Z,12.79
2022-10-20T06:26:20.127Z,12.69
2022-10-20T06:28:50.075Z,12.71
2022-10-20T06:31:25.883Z,12.78
2022-10-20T06:33:53.471Z,12.81
2022-10-20T06:36:21.334Z,12.79
2022-10-20T06:38:48.518Z,12.83
2022-10-20T06:41:17.504Z,12.91
2022-10-20T06:43:44.973Z,12.98
2022-10-20T06:46:15.084Z,12.99
2022-10-20T06:48:41.968Z,13.02
2022-10-20T06:51:12.591Z,13.08
2022-10-20T06:53:42.761Z,13.12
2022-10-20T06:56:14.991Z,13.13
2022-10-20T06:58:43.590Z,13.25
2022-10-20T07:01:14.840Z,13.29
2022-10-20T07:03:42.612Z,13.32
2022-10-20T07:06:13.273Z,13.40
2022-10-20T07:08:40.074Z,13.44
2022-10-20T07:11:10.438Z,13.48
2022-10-20T07:13:38.192Z,13.52
2022-10-20T07:16:06.222Z,13.56
2022-10-20T07:18:33.485Z,13.59
2022-10-20T07:21:06.993Z,13.64
2022-10-20T07:23:34.712Z,13.71
2022-10-20T07:26:10.336Z,13.85
2022-10-20T07:28:37.648Z,13.91
2022-10-20T07:31:06.933Z,13.95
2022-10-20T07:33:34.369Z,13.93
2022-10-20T07:36:01.395Z,14.04
2022-10-20T07:38:28.487Z,14.10
2022-10-20T07:41:02.347Z,14.21
2022-10-20T07:43:29.088Z,14.27
2022-10-20T07:45:55.990Z,14.35
2022-10-20T07:48:22.676Z,14.43
2022-10-20T07:50:49.426Z,14.56
2022-10-20T07:53:16.156Z,14.61
2022-10-20T07:55:43.157Z,14.65
2022-10-20T07:58:10.206Z,14.69
2022-10-20T08:00:37.587Z,14.81
2022-10-20T08:03:04.340Z,14.93
2022-10-20T08:05:31.220Z,15.06
2022-10-20T08:07:58.288Z,15.19
2022-10-20T08:10:25.153Z,15.30
2022-10-20T08:12:55.131Z,15.40
2022-10-20T08:15:21.828Z,15.40
2022-10-20T08:17:48.586Z,15.45
2022-10-20T08:20:17.099Z,15.54
2022-10-20T08:22:43.855Z,15.66
2022-10-20T08:25:15.036Z,15.83
2022-10-20T08:27:42.286Z,15.94
2022-10-20T08:30:23.393Z,16.08
2022-10-20T08:32:54.321Z,16.16
2022-10-20T08:35:22.155Z,16.28
2022-10-20T08:37:49.131Z,16.41
2022-10-20T08:40:22.701Z,16.51
2022-10-20T08:42:50.089Z,16.67
2022-10-20T08:45:23.691Z,16.68
2022-10-20T08:47:56.669Z,16.88
2022-10-20T08:50:24.727Z,17.03
2022-10-20T08:52:54.569Z,17.22
2022-10-20T08:55:29.492Z,17.46
2022-10-20T08:58:11.459Z,17.82
2022-10-20T09:00:39.317Z,17.84
2022-10-20T09:03:20.302Z,17.78
2022-10-20T09:05:51.805Z,17.62
2022-10-20T09:08:21.036Z,17.51
2022-10-20T09:10:51.447Z,17.60
2022-10-20T09:13:25.470Z,17.81
2022-10-20T09:15:57.447Z,17.92
2022-10-20T09:18:24.397Z,17.86
2022-10-20T09:21:04.308Z,17.77
2022-10-20T09:23:41.666Z,17.74
2022-10-20T09:26:37.674Z,17.65
2022-10-20T09:29:15.383Z,17.55
2022-10-20T09:31:52.132Z,17.50
2022-10-20T09:34:33.737Z,17.43
2022-10-20T09:37:06.494Z,17.38
2022-10-20T09:39:50.156Z,17.38
2022-10-20T09:42:36.687Z,17.41
2022-10-20T09:45:22.028Z,17.50
2022-10-20T09:47:53.663Z,17.55
2022-10-20T09:50:30.366Z,17.53
2022-10-20T09:52:59.211Z,17.56
2022-10-20T09:55:28.002Z,17.59
2022-10-20T09:57:56.719Z,17.66
2022-10-20T10:00:54.622Z,17.62
2022-10-20T10:03:23.310Z,17.57
2022-10-20T10:05:56.553Z,17.60
2022-10-20T10:08:26.767Z,17.53
2022-10-20T10:11:05.060Z,17.46
2022-10-20T10:13:39.522Z,17.49
2022-10-20T10:16:14.273Z,17.58
2022-10-20T10:18:48.286Z,17.69
2022-10-20T10:21:17.606Z,17.79
2022-10-20T10:23:54.167Z,17.89
2022-10-20T10:26:47.534Z,17.89
2022-10-20T10:29:36.152Z,17.89
2022-10-20T10:32:24.385Z,17.94
2022-10-20T10:35:19.898Z,17.95
2022-10-20T10:37:47.951Z,17.85
2022-10-20T10:40:59.644Z,17.83
2022-10-20T10:43:57.996Z,17.97
2022-10-20T10:46:36.749Z,18.17
2022-10-20T10:49:22.377Z,18.17
2022-10-20T10:52:01.240Z,18.10
2022-10-20T10:54:40.171Z,18.01
2022-10-20T10:57:31.684Z,17.92
2022-10-20T11:00:01.852Z,17.84
2022-10-20T11:03:05.280Z,17.78
2022-10-20T11:05:56.907Z,17.74
2022-10-20T11:08:39.697Z,17.75
2022-10-20T11:11:15.806Z,17.73
2022-10-20T11:13:58.505Z,17.68
2022-10-20T11:16:39.131Z,17.69
2022-10-20T11:20:00.397Z,17.67
2022-10-20T11:22:40.989Z,17.64
2022-10-20T11:25:20.214Z,17.58
2022-10-20T11:27:46.924Z,17.61
2022-10-20T11:30:18.462Z,17.55
2022-10-20T11:32:53.737Z,17.54
2022-10-20T11:35:35.532Z,17.58
2022-10-20T11:38:22.845Z,17.63
2022-10-20T11:41:00.738Z,17.65
2022-10-20T11:43:56.757Z,17.68
2022-10-20T11:46:48.991Z,17.69
2022-10-20T11:49:16.042Z,17.69
2022-10-20T11:52:15.279Z,17.70
2022-10-20T11:55:03.103Z,17.71
2022-10-20T11:57:43.804Z,17.69
2022-10-20T12:00:22.430Z,17.71
2022-10-20T12:03:26.166Z,17.70
2022-10-20T12:06:17.554Z,17.71
2022-10-20T12:09:22.151Z,17.68
2022-10-20T12:12:03.880Z,17.63
2022-10-20T12:14:43.243Z,17.60
2022-10-20T12:17:15.136Z,17.60
2022-10-20T12:19:44.659Z,17.59
2022-10-20T12:22:14.537Z,17.57
2022-10-20T12:24:54.413Z,17.57
2022-10-20T12:27:29.537Z,17.57
2022-10-20T12:30:04.900Z,17.57
2022-10-20T12:33:09.140Z,17.58
2022-10-20T12:36:15.062Z,17.56
2022-10-20T12:38:53.275Z,17.55
2022-10-20T12:41:29.143Z,17.61
2022-10-20T12:44:05.919Z,17.60
2022-10-20T12:46:35.622Z,17.60
2022-10-20T12:49:18.135Z,17.60
2022-10-20T12:51:51.638Z,17.62
2022-10-20T12:54:24.124Z,17.61
2022-10-20T12:56:55.438Z,17.61
2022-10-20T12:59:42.429Z,17.60
2022-10-20T13:02:09.130Z,17.59
2022-10-20T13:04:55.301Z,17.62
2022-10-20T13:07:44.531Z,17.65
2022-10-20T13:10:26.637Z,17.71
2022-10-20T13:13:18.860Z,17.75
2022-10-20T13:15:57.988Z,17.80
2022-10-20T13:18:36.887Z,17.83
2022-10-20T13:21:23.092Z,17.90
2022-10-20T13:24:24.996Z,17.93
2022-10-20T13:26:57.711Z,17.96
2022-10-20T13:29:32.786Z,17.98
2022-10-20T13:34:43.311Z,17.90
2022-10-20T13:37:44.928Z,17.88
2022-10-20T13:40:27.147Z,17.85
2022-10-20T13:43:24.485Z,17.78
2022-10-20T13:46:00.455Z,17.75
2022-10-20T13:48:49.880Z,17.71
2022-10-20T13:51:21.196Z,17.65
2022-10-20T13:53:52.816Z,17.63
2022-10-20T13:56:34.258Z,17.59
2022-10-20T13:59:08.713Z,17.56
2022-10-20T14:01:36.838Z,17.54
2022-10-20T14:04:26.491Z,17.54
2022-10-20T14:06:56.718Z,17.50
2022-10-20T14:09:25.362Z,17.49
2022-10-20T14:12:01.158Z,17.47
2022-10-20T14:14:29.851Z,17.46
2022-10-20T14:17:03.038Z,17.43
2022-10-20T14:19:34.435Z,17.39
2022-10-20T14:22:25.316Z,17.41
2022-10-20T14:24:55.843Z,17.39
2022-10-20T14:27:32.377Z,17.38
2022-10-20T14:30:03.037Z,17.36
2022-10-20T14:32:32.877Z,17.35
2022-10-20T14:35:23.453Z,17.35
2022-10-20T14:38:29.577Z,17.36
2022-10-20T14:40:58.266Z,17.35
2022-10-20T14:43:31.025Z,17.33
2022-10-20T14:46:02.633Z,17.36
2022-10-20T14:48:41.077Z,17.41
2022-10-20T14:51:26.698Z,17.43
2022-10-20T14:54:17.121Z,17.43
2022-10-20T14:56:46.519Z,17.41
2022-10-20T14:59:27.979Z,17.39
2022-10-20T15:02:01.305Z,17.37
2022-10-20T15:04:32.140Z,17.36
2022-10-20T15:07:15.720Z,17.32
2022-10-20T15:09:48.437Z,17.28
2022-10-20T15:12:20.737Z,17.23
2022-10-20T15:14:50.515Z,17.21
2022-10-20T15:17:40.928Z,17.18
2022-10-20T15:20:43.949Z,17.12
2022-10-20T15:23:19.735Z,17.06
2022-10-20T15:25:50.291Z,17.03
2022-10-20T15:28:46.883Z,16.99
2022-10-20T15:31:13.735Z,16.99
2022-10-20T15:33:41.527Z,16.97
2022-10-20T15:36:16.405Z,16.93
2022-10-20T15:38:43.413Z,16.90
2022-10-20T15:41:17.377Z,16.87
2022-10-20T15:43:44.061Z,16.84
2022-10-20T15:46:12.596Z,16.86
2022-10-20T15:48:39.660Z,16.81
2022-10-20T15:51:15.059Z,16.78
2022-10-20T15:53:41.708Z,16.78
2022-10-20T15:56:08.395Z,16.77
2022-10-20T15:58:39.638Z,16.74
2022-10-20T16:01:07.854Z,16.72
2022-10-20T16:03:35.705Z,16.66
2022-10-20T16:06:02.404Z,16.62
2022-10-20T16:08:29.110Z,16.58
2022-10-20T16:10:56.148Z,16.56
2022-10-20T16:13:22.972Z,16.48
2022-10-20T16:15:49.724Z,16.46
2022-10-20T16:18:16.718Z,16.41
2022-10-20T16:20:43.433Z,16.41
2022-10-20T16:23:10.150Z,16.38
2022-10-20T16:25:40.447Z,16.36
2022-10-20T16:28:07.470Z,16.31
2022-10-20T16:30:34.436Z,16.28
2022-10-20T16:33:01.234Z,16.20
2022-10-20T16:35:28.264Z,16.17
2022-10-20T16:37:55.142Z,16.16
2022-10-20T16:40:21.920Z,16.12
2022-10-20T16:42:48.690Z,16.12
2022-10-20T16:45:15.631Z,16.12
2022-10-20T16:47:42.546Z,16.09
2022-10-20T16:50:09.494Z,16.07
2022-10-20T16:52:36.265Z,16.05
2022-10-20T16:55:03.161Z,16.05
2022-10-20T16:57:33.362Z,16.05
2022-10-20T17:00:00.381Z,16.02
2022-10-20T17:02:27.095Z,16.01
2022-10-20T17:04:53.806Z,16.03
2022-10-20T17:07:20.616Z,16.03
2022-10-20T17:09:47.342Z,16.01
2022-10-20T17:12:14.094Z,16.02
2022-10-20T17:14:40.916Z,15.99
2022-10-20T17:17:07.756Z,15.97
2022-10-20T17:19:34.566Z,15.95
2022-10-20T17:22:01.388Z,15.94
2022-10-20T17:24:28.102Z,15.92
2022-10-20T17:26:54.774Z,15.93
2022-10-20T17:29:25.133Z,15.90
2022-10-20T17:31:52.962Z,15.86
2022-10-20T17:34:19.866Z,15.86
2022-10-20T17:36:46.562Z,15.87
2022-10-20T17:39:21.818Z,15.86
2022-10-20T17:41:48.572Z,15.85
2022-10-20T17:44:15.490Z,15.85
2022-10-20T17:46:43.263Z,15.87
2022-10-20T17:49:10.146Z,15.88
2022-10-20T17:51:36.875Z,15.91
2022-10-20T17:54:04.734Z,15.86
2022-10-20T17:56:35.448Z,15.85
2022-10-20T17:59:05.259Z,15.84
2022-10-20T18:01:35.481Z,15.80
2022-10-20T18:04:06.991Z,15.82
2022-10-20T18:06:34.999Z,15.81
2022-10-20T18:09:08.422Z,15.81
2022-10-20T18:11:37.106Z,15.81
2022-10-20T18:14:04.520Z,15.81
2022-10-20T18:16:34.049Z,15.80
2022-10-20T18:19:00.869Z,15.79
2022-10-20T18:21:29.701Z,15.80
2022-10-20T18:24:02.426Z,15.77
2022-10-20T18:26:30.956Z,15.76
2022-10-20T18:28:58.733Z,15.74
2022-10-20T18:31:28.812Z,15.69
2022-10-20T18:34:02.666Z,15.65
2022-10-20T18:36:31.325Z,15.65
2022-10-20T18:38:59.259Z,15.65
2022-10-20T18:41:28.517Z,15.67
2022-10-20T18:44:00.982Z,15.63
2022-10-20T18:46:32.975Z,15.62
2022-10-20T18:49:03.222Z,15.57
2022-10-20T18:51:31.436Z,15.58
2022-10-20T18:53:59.664Z,15.59
2022-10-20T18:56:28.382Z,15.58
2022-10-20T18:59:04.282Z,15.57
2022-10-20T19:01:33.241Z,15.62
2022-10-20T19:04:00.857Z,15.61
2022-10-20T19:06:32.946Z,15.59
2022-10-20T19:09:01.803Z,15.58
2022-10-20T19:11:32.102Z,15.55
2022-10-20T19:13:59.541Z,15.53
2022-10-20T19:16:31.713Z,15.52
2022-10-20T19:19:00.707Z,15.55
2022-10-20T19:21:28.854Z,15.56
2022-10-20T19:24:09.093Z,15.52
2022-10-20T19:26:39.696Z,15.54
2022-10-20T19:29:10.027Z,15.53
2022-10-20T19:31:46.135Z,15.52
2022-10-20T19:34:19.635Z,15.49
2022-10-20T19:36:46.713Z,15.50
2022-10-20T19:39:20.091Z,15.54
2022-10-20T19:41:47.349Z,15.58
2022-10-20T19:44:15.488Z,15.58
2022-10-20T19:46:44.709Z,15.57
2022-10-20T19:49:11.974Z,15.58
2022-10-20T19:51:39.057Z,15.58
2022-10-20T19:54:06.945Z,15.54
2022-10-20T19:56:34.906Z,15.51
2022-10-20T19:59:03.367Z,15.51
2022-10-20T20:01:31.098Z,15.55
2022-10-20T20:03:58.697Z,15.54
2022-10-20T20:06:26.422Z,15.54
2022-10-20T20:08:59.050Z,15.56
2022-10-20T20:11:29.726Z,15.54
2022-10-20T20:14:00.094Z,15.51
2022-10-20T20:16:27.422Z,15.49
2022-10-20T20:18:54.543Z,15.49
2022-10-20T20:21:22.850Z,15.49
2022-10-20T20:24:01.193Z,15.47
2022-10-20T20:26:37.680Z,15.48
2022-10-20T20:29:05.358Z,15.48
2022-10-20T20:31:33.157Z,15.48
2022-10-20T20:33:59.889Z,15.50
2022-10-20T20:36:27.853Z,15.51
2022-10-20T20:38:59.236Z,15.49
2022-10-20T20:41:29.988Z,15.45
2022-10-20T20:43:57.037Z,15.40
2022-10-20T20:46:26.640Z,15.39
2022-10-20T20:48:53.334Z,15.39
2022-10-20T20:51:20.432Z,15.38
2022-10-20T20:53:47.343Z,15.39
2022-10-20T20:56:16.561Z,15.35
2022-10-20T20:58:48.881Z,15.34
2022-10-20T21:01:21.971Z,15.31
2022-10-20T21:03:53.510Z,15.32
2022-10-20T21:06:22.992Z,15.31
2022-10-20T21:08:56.167Z,15.34
2022-10-20T21:11:25.483Z,15.38
2022-10-20T21:13:54.699Z,15.38
2022-10-20T21:16:25.643Z,15.38
2022-10-20T21:18:54.923Z,15.37
2022-10-20T21:21:24.482Z,15.34
2022-10-20T21:23:51.729Z,15.32
2022-10-20T21:26:20.616Z,15.34
2022-10-20T21:28:48.171Z,15.33
2022-10-20T21:31:19.752Z,15.35
2022-10-20T21:33:50.097Z,15.35
2022-10-20T21:36:18.485Z,15.38
2022-10-20T21:38:45.770Z,15.35
2022-10-20T21:41:28.001Z,15.38
2022-10-20T21:43:57.925Z,15.37
2022-10-20T21:46:26.032Z,15.33
2022-10-20T21:48:56.094Z,15.33
2022-10-20T21:51:32.020Z,15.32
2022-10-20T21:54:08.549Z,15.33
2022-10-20T21:56:37.170Z,15.31
2022-10-20T21:59:11.502Z,15.30
2022-10-20T22:01:38.206Z,15.29
2022-10-20T22:04:04.881Z,15.28
2022-10-20T22:06:31.559Z,15.29
2022-10-20T22:08:58.920Z,15.25
2022-10-20T22:11:29.108Z,15.23
2022-10-20T22:13:56.451Z,15.25
2022-10-20T22:16:26.807Z,15.25
2022-10-20T22:19:05.403Z,15.23
2022-10-20T22:21:35.230Z,15.24
2022-10-20T22:24:03.978Z,15.23
2022-10-20T22:26:31.637Z,15.20
2022-10-20T22:28:59.398Z,15.20
2022-10-20T22:31:26.759Z,15.19
2022-10-20T22:33:55.902Z,15.15
2022-10-20T22:36:23.114Z,15.09
2022-10-20T22:38:49.895Z,15.09
2022-10-20T22:41:17.256Z,15.09
2022-10-20T22:43:44.103Z,15.09
2022-10-20T22:46:11.077Z,15.08
2022-10-20T22:48:37.831Z,15.09
2022-10-20T22:51:06.048Z,15.09
2022-10-20T22:53:32.784Z,15.06
2022-10-20T22:56:06.954Z,15.04
2022-10-20T22:58:34.109Z,15.06
2022-10-20T23:01:05.824Z,15.10
2022-10-20T23:03:32.573Z,15.09
2022-10-20T23:05:59.538Z,15.08
2022-10-20T23:08:28.302Z,15.10
2022-10-20T23:10:57.998Z,15.09
2022-10-20T23:13:24.690Z,15.09
2022-10-20T23:15:52.643Z,15.12
2022-10-20T23:18:20.309Z,15.15
2022-10-20T23:20:47.041Z,15.15
2022-10-20T23:23:13.748Z,15.17
2022-10-20T23:25:43.889Z,15.17
2022-10-20T23:28:10.598Z,15.17
2022-10-20T23:30:37.261Z,15.15
2022-10-20T23:33:04.117Z,15.14
2022-10-20T23:35:30.818Z,15.14
2022-10-20T23:37:57.478Z,15.16
2022-10-20T23:40:24.295Z,15.19
2022-10-20T23:42:50.947Z,15.21
2022-10-20T23:45:17.638Z,15.26
2022-10-20T23:47:44.452Z,15.25
2022-10-20T23:50:11.340Z,15.25
2022-10-20T23:55:06.263Z,15.22
2022-10-20T23:57:32.961Z,15.23
2022-10-20T23:59:59.648Z,15.24
